createdAt,value
2019-04-11T00:00:31.411Z,2.1
2019-04-11T00:01:36.657Z,2.2
2019-04-11T00:02:33.044Z,3.6
2019-04-11T00:03:31.564Z,2.4
2019-04-11T00:04:32.290Z,2.4
2019-04-11T00:05:31.761Z,2.6
2019-04-11T00:06:33.810Z,1.9
2019-04-11T00:07:32.118Z,2.1
2019-04-11T00:08:32.197Z,1.8
2019-04-11T00:09:34.430Z,3.3
2019-04-11T00:10:33.075Z,3
2019-04-11T00:11:33.604Z,1.8
2019-04-11T00:12:32.675Z,2.3
2019-04-11T00:13:35.089Z,2.2
2019-04-11T00:14:33.781Z,2.1
2019-04-11T00:15:32.883Z,2.4
2019-04-11T00:16:33.119Z,2.4
2019-04-11T00:17:34.107Z,2.5
2019-04-11T00:18:34.502Z,2.2
2019-04-11T00:19:33.627Z,2.9
2019-04-11T00:20:33.857Z,1.6
2019-04-11T00:21:33.455Z,2
2019-04-11T00:22:33.566Z,1.7
2019-04-11T00:23:34.329Z,2.3
2019-04-11T00:24:34.812Z,2.6
2019-04-11T00:25:34.080Z,2.2
2019-04-11T00:26:33.746Z,2.3
2019-04-11T00:27:33.770Z,2.1
2019-04-11T00:28:34.115Z,2.6
2019-04-11T00:29:34.423Z,2.2
2019-04-11T00:30:34.463Z,2.2
2019-04-11T00:31:34.346Z,1.8
2019-04-11T00:32:34.372Z,1.8
2019-04-11T00:33:34.473Z,1.8
2019-04-11T00:34:35.297Z,2.6
2019-04-11T00:35:35.537Z,1.8
2019-04-11T00:36:34.746Z,2.7
2019-04-11T00:37:34.915Z,2.7
2019-04-11T00:38:36.046Z,2.2
2019-04-11T00:39:37.444Z,2.9
2019-04-11T00:40:37.348Z,2.9
2019-04-11T00:41:36.259Z,2.6
2019-04-11T00:42:35.312Z,2.4
2019-04-11T00:43:38.799Z,2.1
2019-04-11T00:44:36.896Z,2.2
2019-04-11T00:45:35.947Z,3.3
2019-04-11T00:46:36.277Z,1.8
2019-04-11T00:47:38.247Z,2.1
2019-04-11T00:48:36.258Z,1.8
2019-04-11T00:49:36.638Z,2.3
2019-04-11T00:50:37.208Z,1.8
2019-04-11T00:51:36.368Z,1.7
2019-04-11T00:52:37.082Z,2.1
2019-04-11T00:53:36.637Z,2.5
2019-04-11T00:54:37.203Z,2.1
2019-04-11T00:55:37.635Z,2.3
2019-04-11T00:56:37.658Z,2
2019-04-11T00:57:37.136Z,1.6
2019-04-11T00:58:38.043Z,1.6
2019-04-11T00:59:37.147Z,2.3
2019-04-11T01:00:38.564Z,2.3
2019-04-11T01:01:37.357Z,1.9
2019-04-11T01:02:37.760Z,2.5
2019-04-11T01:03:41.107Z,2
2019-04-11T01:04:39.009Z,1.9
2019-04-11T01:05:39.412Z,3.4
2019-04-11T01:06:38.415Z,2.8
2019-04-11T01:07:38.709Z,2.1
2019-04-11T01:08:38.075Z,1.8
2019-04-11T01:09:38.207Z,1.6
2019-04-11T01:10:39.230Z,1.7
2019-04-11T01:11:40.285Z,2
2019-04-11T01:12:38.655Z,1.6
2019-04-11T01:13:44.259Z,2.1
2019-04-11T01:14:40.547Z,1.8
2019-04-11T01:15:40.651Z,2.2
2019-04-11T01:16:40.849Z,2.2
2019-04-11T01:17:39.835Z,2.4
2019-04-11T01:18:40.251Z,1.9
2019-04-11T01:19:40.689Z,2.8
2019-04-11T01:20:39.758Z,2.5
2019-04-11T01:21:40.300Z,2.2
2019-04-11T01:22:40.604Z,2.5
2019-04-11T01:23:39.530Z,2.7
2019-04-11T01:24:39.869Z,1.9
2019-04-11T01:25:40.910Z,1.7
2019-04-11T01:26:39.728Z,2.4
2019-04-11T01:27:41.080Z,1.8
2019-04-11T01:28:40.201Z,2
2019-04-11T01:29:40.319Z,1.8
2019-04-11T01:30:40.895Z,1.6
2019-04-11T01:31:40.181Z,1.7
2019-04-11T01:32:40.384Z,1.7
2019-04-11T01:33:40.527Z,1.8
2019-04-11T01:34:40.649Z,1.8
2019-04-11T01:35:41.596Z,2.2
2019-04-11T01:36:42.865Z,1.5
2019-04-11T01:37:41.993Z,1.8
2019-04-11T01:38:41.075Z,1.9
2019-04-11T01:39:43.284Z,1.8
2019-04-11T01:40:42.325Z,2
2019-04-11T01:41:42.615Z,1.7
2019-04-11T01:42:41.815Z,2.3
2019-04-11T01:43:52.524Z,2.3
2019-04-11T01:44:43.045Z,1.6
2019-04-11T01:45:43.326Z,2
2019-04-11T01:46:42.348Z,1.7
2019-04-11T01:47:42.731Z,1.6
2019-04-11T01:48:42.279Z,2.7
2019-04-11T01:49:42.174Z,1.5
2019-04-11T01:50:43.218Z,2.3
2019-04-11T01:51:43.187Z,2.6
2019-04-11T01:52:42.532Z,3.1
2019-04-11T01:53:43.555Z,2.2
2019-04-11T01:54:42.515Z,1.7
2019-04-11T01:55:42.921Z,2
2019-04-11T01:56:42.767Z,3
2019-04-11T01:57:43.510Z,2
2019-04-11T01:58:42.871Z,1.9
2019-04-11T01:59:43.694Z,1.8
2019-04-11T02:00:44.078Z,2.1
2019-04-11T02:01:43.157Z,2.3
2019-04-11T02:02:43.096Z,1.5
2019-04-11T02:03:43.463Z,2.1
2019-04-11T02:04:43.919Z,1.8
2019-04-11T02:05:43.504Z,2.2
2019-04-11T02:06:43.645Z,1.7
2019-04-11T02:07:44.791Z,1.6
2019-04-11T02:08:45.024Z,2.4
2019-04-11T02:09:44.239Z,2.1
2019-04-11T02:10:45.222Z,2.1
2019-04-11T02:11:44.210Z,1.7
2019-04-11T02:12:44.256Z,1.7
2019-04-11T02:13:44.506Z,1.9
2019-04-11T02:14:44.339Z,2.1
2019-04-11T02:15:44.405Z,2.1
2019-04-11T02:16:45.316Z,1.7
2019-04-11T02:17:46.431Z,2.1
2019-04-11T02:18:45.958Z,1.6
2019-04-11T02:19:44.829Z,1.8
2019-04-11T02:20:45.170Z,1.5
2019-04-11T02:21:44.877Z,1.7
2019-04-11T02:22:45.015Z,1.7
2019-04-11T02:23:45.525Z,2.1
2019-04-11T02:24:45.432Z,2.4
2019-04-11T02:25:45.402Z,1.4
2019-04-11T02:26:46.794Z,1.7
2019-04-11T02:27:46.279Z,2.4
2019-04-11T02:28:46.693Z,1.9
2019-04-11T02:29:46.750Z,1.9
2019-04-11T02:30:48.202Z,1.9
2019-04-11T02:31:48.000Z,1.2
2019-04-11T02:32:47.953Z,2.1
2019-04-11T02:33:48.799Z,1.6
2019-04-11T02:34:48.600Z,1.4
2019-04-11T02:35:49.193Z,1.6
2019-04-11T02:36:46.683Z,1.5
2019-04-11T02:37:49.538Z,1.9
2019-04-11T02:38:53.985Z,1.6
2019-04-11T02:39:49.333Z,1.8
2019-04-11T02:40:49.823Z,2.1
2019-04-11T02:41:48.005Z,1.8
2019-04-11T02:42:47.613Z,1.8
2019-04-11T02:43:48.999Z,1.9
2019-04-11T02:45:02.892Z,1.4
2019-04-11T02:45:57.922Z,2
2019-04-11T02:46:57.669Z,1.5
2019-04-11T02:47:51.635Z,1.6
2019-04-11T02:48:49.741Z,1.8
2019-04-11T02:49:49.572Z,1.4
2019-04-11T02:50:50.163Z,1.7
2019-04-11T02:51:49.445Z,1.9
2019-04-11T02:52:50.231Z,1.8
2019-04-11T02:53:49.700Z,1.9
2019-04-11T02:54:49.454Z,1.7
2019-04-11T02:55:49.770Z,1.3
2019-04-11T02:56:50.372Z,1.4
2019-04-11T02:57:50.208Z,2.6
2019-04-11T02:58:50.254Z,2
2019-04-11T02:59:51.204Z,1.6
2019-04-11T03:00:51.155Z,2.7
2019-04-11T03:01:50.866Z,1.8
2019-04-11T03:02:52.123Z,1.5
2019-04-11T03:03:51.801Z,1.5
2019-04-11T03:04:51.004Z,2.2
2019-04-11T03:05:50.806Z,1.7
2019-04-11T03:06:51.940Z,2.2
2019-04-11T03:07:49.880Z,1.8
2019-04-11T03:08:50.858Z,1.9
2019-04-11T03:09:51.073Z,2.3
2019-04-11T03:10:51.427Z,1.9
2019-04-11T03:11:51.634Z,1.7
2019-04-11T03:12:52.665Z,1.6
2019-04-11T03:13:52.647Z,1.7
2019-04-11T03:15:09.035Z,1.5
2019-04-11T03:16:05.181Z,1.5
2019-04-11T03:17:02.239Z,1.5
2019-04-11T03:17:57.301Z,2
2019-04-11T03:19:04.796Z,1.4
2019-04-11T03:20:02.579Z,2
2019-04-11T03:20:56.588Z,1.6
2019-04-11T03:21:54.285Z,1.6
2019-04-11T03:22:57.200Z,1.5
2019-04-11T03:23:53.193Z,1.9
2019-04-11T03:24:53.780Z,1.4
2019-04-11T03:25:54.324Z,1.8
2019-04-11T03:26:54.799Z,2.5
2019-04-11T03:27:53.979Z,2.2
2019-04-11T03:28:56.185Z,1.6
2019-04-11T03:29:53.770Z,1.7
2019-04-11T03:31:12.683Z,2
2019-04-11T03:33:53.609Z,1.5
2019-04-11T03:34:22.060Z,1.6
2019-04-11T03:35:34.434Z,2
2019-04-11T03:36:59.717Z,1.8
2019-04-11T03:38:18.247Z,1.6
2019-04-11T03:39:14.397Z,1.8
2019-04-11T03:40:11.137Z,1.4
2019-04-11T03:41:09.839Z,1.5
2019-04-11T03:42:09.326Z,1.8
2019-04-11T03:43:08.681Z,1.3
2019-04-11T03:44:03.438Z,1.8
2019-04-11T03:45:14.944Z,2.2
2019-04-11T03:46:12.981Z,1.1
2019-04-11T03:47:11.010Z,1.9
2019-04-11T03:48:10.018Z,1.9
2019-04-11T03:49:03.356Z,1.6
2019-04-11T03:50:01.240Z,2
2019-04-11T03:50:57.292Z,1.9
2019-04-11T03:51:55.746Z,1.4
2019-04-11T03:52:56.203Z,1.8
2019-04-11T03:53:56.750Z,2
2019-04-11T03:54:56.298Z,1.5
2019-04-11T03:55:56.267Z,1.8
2019-04-11T03:56:57.194Z,2.1
2019-04-11T03:57:56.615Z,1.8
2019-04-11T03:58:57.747Z,1.3
2019-04-11T03:59:56.528Z,1.4
2019-04-11T04:01:01.069Z,1.7
2019-04-11T04:01:58.743Z,2
2019-04-11T04:02:57.888Z,1.7
2019-04-11T04:03:58.170Z,1.8
2019-04-11T04:04:57.168Z,1.9
2019-04-11T04:05:57.335Z,1.8
2019-04-11T04:06:58.236Z,1.8
2019-04-11T04:07:58.083Z,2.5
2019-04-11T04:08:58.423Z,1.9
2019-04-11T04:09:58.422Z,1.8
2019-04-11T04:10:58.334Z,1.6
2019-04-11T04:11:59.433Z,1.5
2019-04-11T04:12:58.160Z,1.6
2019-04-11T04:13:59.410Z,1.6
2019-04-11T04:14:59.137Z,2.2
2019-04-11T04:16:07.270Z,1.6
2019-04-11T04:17:01.133Z,1.7
2019-04-11T04:17:59.668Z,1.7
2019-04-11T04:18:58.649Z,1.4
2019-04-11T04:19:59.527Z,1.5
2019-04-11T04:20:59.668Z,1.2
2019-04-11T04:21:59.546Z,1.2
2019-04-11T04:22:57.738Z,1.7
2019-04-11T04:24:01.331Z,1.7
2019-04-11T04:24:59.052Z,1.4
2019-04-11T04:25:58.460Z,1.5
2019-04-11T04:27:00.976Z,1.9
2019-04-11T04:27:59.545Z,2.1
2019-04-11T04:28:59.809Z,1.3
2019-04-11T04:30:00.349Z,1.7
2019-04-11T04:31:00.206Z,1.7
2019-04-11T04:31:59.492Z,2.1
2019-04-11T04:32:58.609Z,1.5
2019-04-11T04:33:59.605Z,1.6
2019-04-11T04:35:01.084Z,1.5
2019-04-11T04:36:00.141Z,1.5
2019-04-11T04:37:00.218Z,1.8
2019-04-11T04:38:00.039Z,1.7
2019-04-11T04:39:01.325Z,1.5
2019-04-11T04:40:17.467Z,1.2
2019-04-11T04:41:09.845Z,2
2019-04-11T04:42:06.711Z,1.2
2019-04-11T04:43:01.370Z,2
2019-04-11T04:44:01.630Z,1.3
2019-04-11T04:45:00.385Z,2.1
2019-04-11T04:46:16.756Z,2.3
2019-04-11T04:47:13.526Z,1.7
2019-04-11T04:48:04.372Z,1.9
2019-04-11T04:49:02.401Z,1.4
2019-04-11T04:50:01.367Z,1.4
2019-04-11T04:51:05.733Z,2
2019-04-11T04:52:01.544Z,1.8
2019-04-11T04:53:02.554Z,1.3
2019-04-11T04:54:00.522Z,1.8
2019-04-11T04:55:02.038Z,1.4
2019-04-11T04:56:02.638Z,1.6
2019-04-11T04:57:00.940Z,1.4
2019-04-11T04:58:01.941Z,1.7
2019-04-11T04:59:02.562Z,1.6
2019-04-11T05:00:02.565Z,1.6
2019-04-11T05:01:03.628Z,1.3
2019-04-11T05:02:03.446Z,1.3
2019-04-11T05:03:02.426Z,1.2
2019-04-11T05:04:04.509Z,1.5
2019-04-11T05:05:04.154Z,1.4
2019-04-11T05:06:03.763Z,1.8
2019-04-11T05:07:03.057Z,1.5
2019-04-11T05:08:03.038Z,1.7
2019-04-11T05:09:04.249Z,1.8
2019-04-11T05:10:04.529Z,1.3
2019-04-11T05:11:04.493Z,1.4
2019-04-11T05:12:03.394Z,1.5
2019-04-11T05:13:03.521Z,1.3
2019-04-11T05:14:02.953Z,1.8
2019-04-11T05:15:03.649Z,1.3
2019-04-11T05:16:08.178Z,1.7
2019-04-11T05:17:03.879Z,1.4
2019-04-11T05:18:04.060Z,1.5
2019-04-11T05:19:04.465Z,1.5
2019-04-11T05:20:04.931Z,1.6
2019-04-11T05:21:03.827Z,1.7
2019-04-11T05:22:03.177Z,1.5
2019-04-11T05:23:04.571Z,2.1
2019-04-11T05:24:03.952Z,1.5
2019-04-11T05:25:05.382Z,1.4
2019-04-11T05:26:03.565Z,2.2
2019-04-11T05:27:04.565Z,1.5
2019-04-11T05:28:04.278Z,1.3
2019-04-11T05:29:04.891Z,1.7
2019-04-11T05:30:04.974Z,1.5
2019-04-11T05:31:04.477Z,1.4
2019-04-11T05:32:05.160Z,1.5
2019-04-11T05:33:05.931Z,1.3
2019-04-11T05:34:04.921Z,1.6
2019-04-11T05:35:04.802Z,1.7
2019-04-11T05:36:04.245Z,1.5
2019-04-11T05:37:04.464Z,1.5
2019-04-11T05:38:04.887Z,1.7
2019-04-11T05:39:04.469Z,1.4
2019-04-11T05:40:05.183Z,1.5
2019-04-11T05:41:09.413Z,1.5
2019-04-11T05:42:07.056Z,1.9
2019-04-11T05:43:06.623Z,1.2
2019-04-11T05:44:08.790Z,2
2019-04-11T05:45:09.824Z,1.6
2019-04-11T05:46:23.044Z,1.6
2019-04-11T05:47:06.876Z,1.2
2019-04-11T05:48:06.297Z,1.5
2019-04-11T05:49:05.401Z,1.6
2019-04-11T05:50:09.117Z,1.5
2019-04-11T05:51:06.791Z,2.3
2019-04-11T05:52:06.045Z,1.4
2019-04-11T05:53:05.862Z,1.6
2019-04-11T05:54:07.528Z,1.3
2019-04-11T05:55:08.191Z,1.5
2019-04-11T05:56:09.145Z,1.2
2019-04-11T05:57:07.004Z,2.1
2019-04-11T05:58:10.678Z,1.9
2019-04-11T05:59:07.430Z,1.8
2019-04-11T06:00:07.772Z,1.3
2019-04-11T06:01:14.178Z,1.6
2019-04-11T06:02:09.003Z,1.5
2019-04-11T06:03:06.234Z,1.2
2019-04-11T06:04:07.870Z,1.6
2019-04-11T06:05:09.011Z,1.4
2019-04-11T06:06:06.823Z,1.6
2019-04-11T06:07:08.332Z,2
2019-04-11T06:08:07.575Z,1.3
2019-04-11T06:09:09.159Z,1.5
2019-04-11T06:10:10.082Z,1.9
2019-04-11T06:11:07.753Z,1.5
2019-04-11T06:12:09.158Z,2.7
2019-04-11T06:13:07.969Z,2
2019-04-11T06:14:07.430Z,1.6
2019-04-11T06:15:08.129Z,1.5
2019-04-11T06:16:08.243Z,1.6
2019-04-11T06:17:07.368Z,1.9
2019-04-11T06:18:07.348Z,2.4
2019-04-11T06:19:08.088Z,1.2
2019-04-11T06:20:08.220Z,1.3
2019-04-11T06:21:09.493Z,1.3
2019-04-11T06:22:10.768Z,1.6
2019-04-11T06:23:09.950Z,2
2019-04-11T06:24:09.888Z,1.3
2019-04-11T06:25:09.219Z,1.8
2019-04-11T06:26:10.540Z,1.1
2019-04-11T06:27:08.886Z,1.6
2019-04-11T06:28:09.632Z,2.1
2019-04-11T06:29:17.079Z,2.3
2019-04-11T06:30:12.336Z,1.7
2019-04-11T06:31:09.748Z,1.3
2019-04-11T06:32:09.763Z,1.4
2019-04-11T06:33:10.560Z,2.2
2019-04-11T06:34:11.254Z,1
2019-04-11T06:35:10.122Z,1.5
2019-04-11T06:36:09.823Z,1.1
2019-04-11T06:38:18.495Z,1.6
2019-04-11T06:38:54.444Z,1.2
2019-04-11T06:42:35.023Z,1.4
2019-04-11T06:43:36.959Z,1.6
2019-04-11T06:44:37.627Z,1.6
2019-04-11T06:45:35.708Z,2.2
2019-04-11T06:46:36.473Z,2.5
2019-04-11T06:47:37.218Z,1.2
2019-04-11T06:48:35.829Z,1.7
2019-04-11T06:49:36.524Z,1.8
2019-04-11T06:50:37.671Z,2.1
2019-04-11T06:51:35.716Z,1.8
2019-04-11T06:52:36.700Z,2.9
2019-04-11T06:53:37.251Z,1.9
2019-04-11T06:54:37.118Z,1.6
2019-04-11T06:55:37.028Z,1.4
2019-04-11T06:56:36.907Z,1.8
2019-04-11T06:57:36.774Z,2.7
2019-04-11T06:58:37.990Z,1.7
2019-04-11T06:59:42.822Z,1.4
2019-04-11T07:00:39.698Z,1.4
2019-04-11T07:01:40.413Z,1.9
2019-04-11T07:02:37.346Z,1.8
2019-04-11T07:03:40.589Z,1.4
2019-04-11T07:04:37.751Z,1.9
2019-04-11T07:05:38.599Z,1.4
2019-04-11T07:06:37.812Z,1.4
2019-04-11T07:07:37.693Z,2.1
2019-04-11T07:08:38.407Z,2.1
2019-04-11T07:09:39.465Z,2.3
2019-04-11T07:10:38.223Z,1.4
2019-04-11T07:11:38.397Z,1.7
2019-04-11T07:12:36.970Z,2.3
2019-04-11T07:13:39.340Z,1.6
2019-04-11T07:14:37.618Z,2
2019-04-11T07:15:38.360Z,2.2
2019-04-11T07:16:38.444Z,1.3
2019-04-11T07:17:38.661Z,1.4
2019-04-11T07:18:40.259Z,2.4
2019-04-11T07:19:40.208Z,1.9
2019-04-11T07:20:38.853Z,2.6
2019-04-11T07:21:39.724Z,2.5
2019-04-11T07:22:38.961Z,2.8
2019-04-11T07:23:40.609Z,1.2
2019-04-11T07:24:41.033Z,1.9
2019-04-11T07:25:39.422Z,1.6
2019-04-11T07:26:39.449Z,1.5
2019-04-11T07:27:40.599Z,1.5
2019-04-11T07:28:41.473Z,1.3
2019-04-11T07:29:40.214Z,1.7
2019-04-11T07:30:39.610Z,1.4
2019-04-11T07:31:39.707Z,2.2
2019-04-11T07:32:40.610Z,1.9
2019-04-11T07:33:43.138Z,2.5
2019-04-11T07:34:39.998Z,1.9
2019-04-11T07:35:39.863Z,1.7
2019-04-11T07:36:40.606Z,2.4
2019-04-11T07:37:40.596Z,2.7
2019-04-11T07:38:41.055Z,2.5
2019-04-11T07:39:42.595Z,1.5
2019-04-11T07:40:41.167Z,2.7
2019-04-11T07:41:45.495Z,1.3
2019-04-11T07:42:44.076Z,1.9
2019-04-11T07:43:43.152Z,1.7
2019-04-11T07:44:41.888Z,2
2019-04-11T07:45:41.760Z,1.7
2019-04-11T07:46:42.976Z,2.9
2019-04-11T07:47:43.901Z,1.5
2019-04-11T07:48:40.288Z,1.3
2019-04-11T07:49:42.986Z,1.6
2019-04-11T07:50:40.733Z,2
2019-04-11T07:51:40.943Z,1.7
2019-04-11T07:52:40.679Z,2
2019-04-11T07:53:40.464Z,1.6
2019-04-11T07:54:41.364Z,1.8
2019-04-11T07:55:39.470Z,4
2019-04-11T07:56:40.491Z,2.1
2019-04-11T07:57:40.337Z,2.5
2019-04-11T07:58:40.151Z,1.8
2019-04-11T07:59:40.526Z,1.4
2019-04-11T08:00:44.697Z,1.9
2019-04-11T08:01:41.010Z,2.5
2019-04-11T08:02:43.277Z,1.6
2019-04-11T08:03:40.699Z,2.2
2019-04-11T08:04:40.789Z,1.3
2019-04-11T08:05:40.961Z,2.5
2019-04-11T08:06:42.356Z,2.2
2019-04-11T08:07:42.502Z,3
2019-04-11T08:08:41.192Z,2.2
2019-04-11T08:09:41.578Z,1.7
2019-04-11T08:10:41.496Z,1.5
2019-04-11T08:11:40.694Z,2.1
2019-04-11T08:12:42.007Z,1.9
2019-04-11T08:13:40.931Z,2.8
2019-04-11T08:14:40.452Z,2.7
2019-04-11T08:15:41.919Z,1.7
2019-04-11T08:16:42.725Z,2
2019-04-11T08:17:42.984Z,1.3
2019-04-11T08:18:41.244Z,2.2
2019-04-11T08:19:43.142Z,2.3
2019-04-11T08:20:41.555Z,2
2019-04-11T08:21:41.928Z,1.6
2019-04-11T08:22:43.234Z,2.7
2019-04-11T08:23:40.968Z,1.4
2019-04-11T08:24:42.686Z,1.8
2019-04-11T08:25:41.776Z,3.5
2019-04-11T08:26:42.231Z,2.6
2019-04-11T08:27:54.444Z,2.4
2019-04-11T08:28:43.414Z,2
2019-04-11T08:29:42.223Z,1.8
2019-04-11T08:30:43.313Z,2.5
2019-04-11T08:31:41.335Z,1.5
2019-04-11T08:32:44.144Z,2.6
2019-04-11T08:33:42.653Z,2.8
2019-04-11T08:34:41.726Z,1.9
2019-04-11T08:35:42.024Z,3.1
2019-04-11T08:36:42.056Z,1.5
2019-04-11T08:37:41.695Z,1.2
2019-04-11T08:38:42.625Z,2.2
2019-04-11T08:39:41.998Z,2.3
2019-04-11T08:40:42.720Z,1.6
2019-04-11T08:41:43.776Z,1.4
2019-04-11T08:42:42.268Z,2.6
2019-04-11T08:43:42.082Z,1.7
2019-04-11T08:44:43.539Z,1.8
2019-04-11T08:45:42.315Z,2.5
2019-04-11T08:46:43.193Z,2.5
2019-04-11T08:47:47.430Z,2.5
2019-04-11T08:48:44.013Z,1.9
2019-04-11T08:49:42.206Z,2.1
2019-04-11T08:50:42.914Z,1.9
2019-04-11T08:51:52.004Z,2.3
2019-04-11T08:52:42.482Z,2.2
2019-04-11T08:53:43.021Z,1.3
2019-04-11T08:54:45.907Z,2.4
2019-04-11T08:55:51.836Z,1.8
2019-04-11T08:56:45.349Z,2.6
2019-04-11T08:57:44.470Z,2.2
2019-04-11T08:58:48.996Z,1.9
2019-04-11T09:00:04.138Z,2.1
2019-04-11T09:00:46.416Z,2.2
2019-04-11T09:01:44.261Z,1.7
2019-04-11T09:02:45.023Z,1.8
2019-04-11T09:03:51.854Z,2.4
2019-04-11T09:04:46.198Z,2
2019-04-11T09:05:42.948Z,1.8
2019-04-11T09:06:43.147Z,2.4
2019-04-11T09:07:43.522Z,2.6
2019-04-11T09:08:44.794Z,2.7
2019-04-11T09:09:45.414Z,3.3
2019-04-11T09:10:44.949Z,2.2
2019-04-11T09:11:44.713Z,2.1
2019-04-11T09:12:44.797Z,1.8
2019-04-11T09:13:45.407Z,2.7
2019-04-11T09:14:44.388Z,2.2
2019-04-11T09:15:43.439Z,1.9
2019-04-11T09:16:43.696Z,2.1
2019-04-11T09:17:54.733Z,2.4
2019-04-11T09:18:46.093Z,1.5
2019-04-11T09:19:43.428Z,2.4
2019-04-11T09:20:45.559Z,2.3
2019-04-11T09:21:44.566Z,1.8
2019-04-11T09:22:44.910Z,1.3
2019-04-11T09:23:46.041Z,2.2
2019-04-11T09:24:46.369Z,2
2019-04-11T09:25:45.751Z,2.5
2019-04-11T09:26:46.298Z,2.8
2019-04-11T09:27:44.812Z,2.9
2019-04-11T09:28:49.416Z,2.6
2019-04-11T09:29:46.265Z,2.4
2019-04-11T09:30:47.305Z,2.1
2019-04-11T09:31:45.647Z,2.7
2019-04-11T09:32:44.871Z,2.1
2019-04-11T09:33:44.937Z,2.6
2019-04-11T09:34:45.994Z,2.2
2019-04-11T09:35:44.679Z,2.7
2019-04-11T09:36:46.928Z,2.3
2019-04-11T09:37:46.199Z,2.9
2019-04-11T09:38:46.449Z,3
2019-04-11T09:39:45.577Z,2.4
2019-04-11T09:40:47.936Z,2.2
2019-04-11T09:41:54.476Z,2.2
2019-04-11T09:42:51.301Z,1.8
2019-04-11T09:44:00.125Z,2.2
2019-04-11T09:45:03.452Z,1.7
2019-04-11T09:45:52.546Z,3.5
2019-04-11T09:46:46.209Z,2.7
2019-04-11T09:47:48.176Z,2.4
2019-04-11T09:48:46.424Z,2.3
2019-04-11T09:49:45.050Z,1.6
2019-04-11T09:50:46.827Z,4.1
2019-04-11T09:51:52.259Z,1.9
2019-04-11T09:52:51.633Z,2.4
2019-04-11T09:53:48.219Z,2.3
2019-04-11T09:54:48.445Z,2.3
2019-04-11T09:55:48.151Z,2.1
2019-04-11T09:56:48.287Z,2.8
2019-04-11T09:57:50.380Z,2.6
2019-04-11T09:58:47.532Z,1.8
2019-04-11T09:59:47.703Z,2.3
2019-04-11T10:00:47.264Z,1.9
2019-04-11T10:01:45.469Z,2.6
2019-04-11T10:02:50.669Z,2.6
2019-04-11T10:03:45.672Z,2.9
2019-04-11T10:04:45.843Z,2.9
2019-04-11T10:05:52.056Z,3.1
2019-04-11T10:06:49.267Z,2
2019-04-11T10:07:46.067Z,2.1
2019-04-11T10:08:47.151Z,1.8
2019-04-11T10:09:46.296Z,2.6
2019-04-11T10:10:46.682Z,2.3
2019-04-11T10:11:46.642Z,2.3
2019-04-11T10:12:46.513Z,1.9
2019-04-11T10:13:49.058Z,2.2
2019-04-11T10:14:46.002Z,2.3
2019-04-11T10:15:45.456Z,2.4
2019-04-11T10:16:46.494Z,1.8
2019-04-11T10:17:48.462Z,1.9
2019-04-11T10:18:49.482Z,2.4
2019-04-11T10:19:54.346Z,2.8
2019-04-11T10:20:48.676Z,2.7
2019-04-11T10:21:47.762Z,2.5
2019-04-11T10:22:46.327Z,2.7
2019-04-11T10:23:47.751Z,2
2019-04-11T10:24:48.408Z,2.3
2019-04-11T10:25:49.674Z,3.1
2019-04-11T10:26:48.430Z,4.1
2019-04-11T10:27:46.894Z,2.5
2019-04-11T10:28:49.824Z,2.9
2019-04-11T10:29:48.370Z,3
2019-04-11T10:30:50.250Z,3
2019-04-11T10:31:46.565Z,2.7
2019-04-11T10:32:49.719Z,3.5
2019-04-11T10:33:50.994Z,1.9
2019-04-11T10:34:46.148Z,3.3
2019-04-11T10:35:46.386Z,2.5
2019-04-11T10:36:47.469Z,2.5
2019-04-11T10:37:49.786Z,2.8
2019-04-11T10:38:49.179Z,2.3
2019-04-11T10:39:47.240Z,3.1
2019-04-11T10:40:48.954Z,2.8
2019-04-11T10:41:50.442Z,2.7
2019-04-11T10:42:47.819Z,2.8
2019-04-11T10:43:51.696Z,3.9
2019-04-11T10:44:47.801Z,2.6
2019-04-11T10:45:47.259Z,2.6
2019-04-11T10:46:49.502Z,2.3
2019-04-11T10:47:51.254Z,2.2
2019-04-11T10:51:56.767Z,3.6
2019-04-11T10:52:32.153Z,5.6
2019-04-11T10:53:44.604Z,2.6
2019-04-11T10:54:32.431Z,2.3
2019-04-11T10:55:22.481Z,3
2019-04-11T10:57:11.889Z,3.4
2019-04-11T10:57:36.052Z,2
2019-04-11T10:58:30.932Z,2.6
2019-04-11T10:59:28.069Z,2.1
2019-04-11T11:00:33.448Z,2.7
2019-04-11T11:01:32.067Z,3.1
2019-04-11T11:02:31.691Z,2.4
2019-04-11T11:03:27.741Z,3.1
2019-04-11T11:04:27.603Z,2.6
2019-04-11T11:05:28.090Z,5
2019-04-11T11:06:27.445Z,2.4
2019-04-11T11:07:34.871Z,2.4
2019-04-11T11:08:33.263Z,2.4
2019-04-11T11:09:28.344Z,2
2019-04-11T11:10:28.413Z,3.6
2019-04-11T11:11:26.200Z,2.9
2019-04-11T11:12:27.410Z,3.3
2019-04-11T11:13:26.969Z,3.3
2019-04-11T11:14:29.511Z,3.2
2019-04-11T11:15:34.258Z,3.4
2019-04-11T11:16:39.209Z,3.9
2019-04-11T11:17:45.770Z,3.5
2019-04-11T11:18:47.779Z,2.2
2019-04-11T11:19:45.400Z,3.5
2019-04-11T11:20:38.468Z,2.6
2019-04-11T11:21:33.699Z,2.7
2019-04-11T11:22:56.030Z,2
2019-04-11T11:23:31.544Z,3.4
2019-04-11T11:26:46.170Z,4
2019-04-11T11:27:07.575Z,3.2
2019-04-11T11:28:03.549Z,3
2019-04-11T11:29:06.988Z,3.2
2019-04-11T11:30:04.260Z,3.1
2019-04-11T11:31:01.637Z,4.1
2019-04-11T11:32:03.003Z,2.1
2019-04-11T11:33:12.286Z,4.3
2019-04-11T11:34:03.255Z,3.1
2019-04-11T11:35:05.317Z,2.4
2019-04-11T11:36:07.553Z,2.4
2019-04-11T11:37:08.970Z,2.9
2019-04-11T11:38:03.955Z,3.6
2019-04-11T11:39:55.853Z,3.7
2019-04-11T11:40:25.867Z,4.8
2019-04-11T11:41:24.437Z,5.9
2019-04-11T11:42:10.305Z,4.6
2019-04-11T11:43:10.631Z,3.4
2019-04-11T11:44:37.090Z,2.9
2019-04-11T11:45:17.324Z,4.5
2019-04-11T11:46:10.041Z,4.1
2019-04-11T11:48:35.392Z,5.8
2019-04-11T11:49:43.726Z,4.9
2019-04-11T11:50:34.847Z,6.5
2019-04-11T11:51:35.228Z,5.5
2019-04-11T11:52:31.791Z,4.6
2019-04-11T11:53:35.655Z,8.6
2019-04-11T11:54:33.162Z,4.5
2019-04-11T11:55:34.199Z,6.7
2019-04-11T11:56:36.339Z,5.5
2019-04-11T11:57:29.408Z,6.3
2019-04-11T11:58:29.906Z,5.6
2019-04-11T11:59:30.715Z,5.9
2019-04-11T12:00:27.510Z,5.2
2019-04-11T12:01:31.583Z,5.7
2019-04-11T12:02:36.871Z,5.5
2019-04-11T12:03:48.893Z,5.6
2019-04-11T12:04:35.271Z,5.1
2019-04-11T12:05:32.674Z,5.4
2019-04-11T12:06:56.689Z,5.5
2019-04-11T12:07:37.090Z,7.2
2019-04-11T12:08:33.194Z,6.8
2019-04-11T12:09:30.804Z,10.6
2019-04-11T12:10:32.755Z,7.9
2019-04-11T12:11:28.672Z,5.3
2019-04-11T12:12:31.525Z,7.3
2019-04-11T12:13:32.514Z,5.6
2019-04-11T12:14:35.275Z,6.6
2019-04-11T12:15:30.430Z,5.9
2019-04-11T12:16:34.659Z,6.7
2019-04-11T12:17:29.279Z,6
2019-04-11T12:18:29.689Z,7
2019-04-11T12:19:42.468Z,5.3
2019-04-11T12:20:39.353Z,6.3
2019-04-11T12:23:12.946Z,7.5
2019-04-11T12:23:47.126Z,8.5
2019-04-11T12:24:36.479Z,7.6
2019-04-11T12:25:33.329Z,7.5
2019-04-11T12:26:33.659Z,8
2019-04-11T12:27:32.953Z,5.6
2019-04-11T12:28:41.538Z,8.9
2019-04-11T12:29:34.374Z,5.7
2019-04-11T12:30:35.658Z,8.3
2019-04-11T12:31:36.442Z,5.6
2019-04-11T12:32:32.661Z,5.1
2019-04-11T12:33:31.560Z,6.1
2019-04-11T12:34:32.425Z,8.1
2019-04-11T12:35:32.644Z,4.9
2019-04-11T12:36:36.996Z,5.9
2019-04-11T12:37:37.723Z,7
2019-04-11T12:38:33.198Z,7.6
2019-04-11T12:39:32.288Z,7.1
2019-04-11T12:40:31.887Z,5.6
2019-04-11T12:41:32.665Z,6.2
2019-04-11T12:42:34.952Z,7.2
2019-04-11T12:43:32.174Z,7.5
2019-04-11T12:44:39.473Z,5.9
2019-04-11T12:45:33.007Z,6.4
2019-04-11T12:46:33.089Z,7.7
2019-04-11T12:47:43.195Z,6.8
2019-04-11T12:48:37.271Z,6.6
2019-04-11T12:49:32.877Z,6.1
2019-04-11T12:50:35.881Z,5.1
2019-04-11T12:51:34.339Z,5.9
2019-04-11T12:52:34.051Z,9.4
2019-04-11T12:53:32.881Z,5
2019-04-11T12:54:35.758Z,5.5
2019-04-11T12:55:33.957Z,5.2
2019-04-11T12:56:42.928Z,7.1
2019-04-11T12:57:33.271Z,5.3
2019-04-11T12:58:33.074Z,7.5
2019-04-11T12:59:33.346Z,6
2019-04-11T13:00:33.246Z,5.3
2019-04-11T13:01:35.746Z,7
2019-04-11T13:02:32.782Z,5.3
2019-04-11T13:03:33.439Z,7.4
2019-04-11T13:04:35.847Z,6.4
2019-04-11T13:05:33.067Z,7.5
2019-04-11T13:06:58.605Z,8.8
2019-04-11T13:07:39.155Z,7.9
2019-04-11T13:08:33.934Z,6
2019-04-11T13:09:37.378Z,9.2
2019-04-11T13:10:34.385Z,6.8
2019-04-11T13:11:33.643Z,7.1
2019-04-11T13:12:39.041Z,6.1
2019-04-11T13:13:51.339Z,6.1
2019-04-11T13:14:36.234Z,5.4
2019-04-11T13:15:37.659Z,6.9
2019-04-11T13:16:36.932Z,4.9
2019-04-11T13:17:34.041Z,6
2019-04-11T13:18:36.434Z,6.6
2019-04-11T13:19:34.905Z,7.1
2019-04-11T13:20:35.420Z,7
2019-04-11T13:21:39.086Z,7.6
2019-04-11T13:22:40.492Z,6.6
2019-04-11T13:23:36.163Z,6.2
2019-04-11T13:24:37.583Z,7.9
2019-04-11T13:25:34.813Z,6.4
2019-04-11T13:26:34.762Z,6.3
2019-04-11T13:27:34.084Z,7.5
2019-04-11T13:28:35.904Z,5.6
2019-04-11T13:29:36.204Z,6.2
2019-04-11T13:30:34.588Z,10
2019-04-11T13:31:36.659Z,6.5
2019-04-11T13:32:34.756Z,6.4
2019-04-11T13:33:35.945Z,6.3
2019-04-11T13:34:34.538Z,6.2
2019-04-11T13:35:35.755Z,10.3
2019-04-11T13:36:34.759Z,6.8
2019-04-11T13:37:35.276Z,9.9
2019-04-11T13:38:35.462Z,9.4
2019-04-11T13:39:36.132Z,8.8
2019-04-11T13:40:37.398Z,7.5
2019-04-11T13:41:35.737Z,6.7
2019-04-11T13:42:39.324Z,7.1
2019-04-11T13:43:47.700Z,8.2
2019-04-11T13:44:35.859Z,6.9
2019-04-11T13:45:36.221Z,6.1
2019-04-11T13:46:37.355Z,10.9
2019-04-11T13:47:35.474Z,8.5
2019-04-11T13:48:36.536Z,9.1
2019-04-11T13:49:37.033Z,9.2
2019-04-11T13:50:37.086Z,8.7
2019-04-11T13:51:39.065Z,8.4
2019-04-11T13:52:36.644Z,8
2019-04-11T13:53:36.549Z,10.3
2019-04-11T13:54:39.254Z,7.4
2019-04-11T13:55:36.037Z,8.4
2019-04-11T13:56:36.382Z,9
2019-04-11T13:57:36.470Z,10.5
2019-04-11T13:58:37.948Z,8.3
2019-04-11T13:59:38.004Z,7.9
2019-04-11T14:00:37.410Z,6
2019-04-11T14:01:39.049Z,8
2019-04-11T14:02:38.541Z,8.7
2019-04-11T14:03:37.988Z,8.6